sensor_id;sensor_type;location;lat;lon;timestamp;P1;durP1;ratioP1;P2;durP2;ratioP2
23474;SDS011;11910;52.086;21.066;2023-07-31T00:00:14;3.53;;;2.85;;
23474;SDS011;11910;52.086;21.066;2023-07-31T00:02:39;5.28;;;2.90;;
23474;SDS011;11910;52.086;21.066;2023-07-31T00:05:06;4.88;;;2.90;;
23474;SDS011;11910;52.086;21.066;2023-07-31T00:07:33;4.78;;;3.15;;
23474;SDS011;11910;52.086;21.066;2023-07-31T00:09:58;5.55;;;3.10;;
23474;SDS011;11910;52.086;21.066;2023-07-31T00:12:24;5.47;;;2.95;;
23474;SDS011;11910;52.086;21.066;2023-07-31T00:14:49;5.45;;;3.30;;
23474;SDS011;11910;52.086;21.066;2023-07-31T00:17:16;4.68;;;2.83;;
23474;SDS011;11910;52.086;21.066;2023-07-31T00:19:42;7.07;;;2.92;;
23474;SDS011;11910;52.086;21.066;2023-07-31T00:22:08;4.20;;;3.05;;
23474;SDS011;11910;52.086;21.066;2023-07-31T00:24:33;5.65;;;2.85;;
23474;SDS011;11910;52.086;21.066;2023-07-31T00:26:59;7.57;;;2.90;;
23474;SDS011;11910;52.086;21.066;2023-07-31T00:29:24;5.35;;;2.75;;
23474;SDS011;11910;52.086;21.066;2023-07-31T00:31:50;9.50;;;3.08;;
23474;SDS011;11910;52.086;21.066;2023-07-31T00:34:16;14.35;;;3.08;;
23474;SDS011;11910;52.086;21.066;2023-07-31T00:36:41;7.40;;;2.60;;
23474;SDS011;11910;52.086;21.066;2023-07-31T00:39:07;6.93;;;2.75;;
23474;SDS011;11910;52.086;21.066;2023-07-31T00:41:32;7.00;;;3.00;;
23474;SDS011;11910;52.086;21.066;2023-07-31T00:43:58;4.55;;;3.33;;
23474;SDS011;11910;52.086;21.066;2023-07-31T00:46:23;7.72;;;3.20;;
23474;SDS011;11910;52.086;21.066;2023-07-31T00:48:49;17.90;;;3.78;;
23474;SDS011;11910;52.086;21.066;2023-07-31T00:51:15;10.73;;;3.58;;
23474;SDS011;11910;52.086;21.066;2023-07-31T00:53:41;11.10;;;3.00;;
23474;SDS011;11910;52.086;21.066;2023-07-31T00:56:07;9.57;;;3.10;;
23474;SDS011;11910;52.086;21.066;2023-07-31T00:58:33;9.32;;;3.03;;
23474;SDS011;11910;52.086;21.066;2023-07-31T01:00:59;12.73;;;3.10;;
23474;SDS011;11910;52.086;21.066;2023-07-31T01:03:25;15.55;;;3.20;;
23474;SDS011;11910;52.086;21.066;2023-07-31T01:06:04;15.75;;;3.20;;
23474;SDS011;11910;52.086;21.066;2023-07-31T01:11:25;5.20;;;3.40;;
23474;SDS011;11910;52.086;21.066;2023-07-31T01:13:57;11.05;;;3.55;;
23474;SDS011;11910;52.086;21.066;2023-07-31T01:16:23;5.75;;;3.40;;
23474;SDS011;11910;52.086;21.066;2023-07-31T01:18:50;8.85;;;3.35;;
23474;SDS011;11910;52.086;21.066;2023-07-31T01:21:39;9.55;;;3.50;;
23474;SDS011;11910;52.086;21.066;2023-07-31T01:27:00;5.32;;;3.40;;
23474;SDS011;11910;52.086;21.066;2023-07-31T01:32:08;6.50;;;3.00;;
23474;SDS011;11910;52.086;21.066;2023-07-31T01:34:35;9.15;;;3.00;;
23474;SDS011;11910;52.086;21.066;2023-07-31T01:37:03;9.55;;;3.10;;
23474;SDS011;11910;52.086;21.066;2023-07-31T01:39:29;7.43;;;3.00;;
23474;SDS011;11910;52.086;21.066;2023-07-31T01:41:55;8.43;;;2.90;;
23474;SDS011;11910;52.086;21.066;2023-07-31T01:44:20;6.85;;;3.03;;
23474;SDS011;11910;52.086;21.066;2023-07-31T01:46:46;4.20;;;2.80;;
23474;SDS011;11910;52.086;21.066;2023-07-31T01:49:11;7.70;;;2.80;;
23474;SDS011;11910;52.086;21.066;2023-07-31T01:51:37;8.50;;;3.20;;
23474;SDS011;11910;52.086;21.066;2023-07-31T01:54:02;3.95;;;3.35;;
23474;SDS011;11910;52.086;21.066;2023-07-31T01:56:28;5.00;;;3.20;;
23474;SDS011;11910;52.086;21.066;2023-07-31T01:58:54;6.68;;;3.58;;
23474;SDS011;11910;52.086;21.066;2023-07-31T02:01:19;6.75;;;3.30;;
23474;SDS011;11910;52.086;21.066;2023-07-31T02:03:45;12.20;;;2.90;;
23474;SDS011;11910;52.086;21.066;2023-07-31T02:06:11;12.77;;;3.42;;
23474;SDS011;11910;52.086;21.066;2023-07-31T02:08:36;7.90;;;2.92;;
23474;SDS011;11910;52.086;21.066;2023-07-31T02:11:02;7.38;;;3.40;;
23474;SDS011;11910;52.086;21.066;2023-07-31T02:13:28;13.70;;;3.17;;
23474;SDS011;11910;52.086;21.066;2023-07-31T02:15:54;9.38;;;3.05;;
23474;SDS011;11910;52.086;21.066;2023-07-31T02:18:19;6.50;;;2.95;;
23474;SDS011;11910;52.086;21.066;2023-07-31T02:20:51;5.75;;;2.83;;
23474;SDS011;11910;52.086;21.066;2023-07-31T02:23:20;5.93;;;3.50;;
23474;SDS011;11910;52.086;21.066;2023-07-31T02:25:46;4.95;;;3.22;;
23474;SDS011;11910;52.086;21.066;2023-07-31T02:28:12;4.70;;;3.50;;
23474;SDS011;11910;52.086;21.066;2023-07-31T02:30:38;6.20;;;2.80;;
23474;SDS011;11910;52.086;21.066;2023-07-31T02:33:04;6.05;;;3.55;;
23474;SDS011;11910;52.086;21.066;2023-07-31T02:35:30;6.70;;;3.33;;
23474;SDS011;11910;52.086;21.066;2023-07-31T02:37:56;6.55;;;3.60;;
23474;SDS011;11910;52.086;21.066;2023-07-31T02:40:21;6.10;;;3.08;;
23474;SDS011;11910;52.086;21.066;2023-07-31T02:42:47;7.03;;;2.90;;
23474;SDS011;11910;52.086;21.066;2023-07-31T02:45:13;5.15;;;3.05;;
23474;SDS011;11910;52.086;21.066;2023-07-31T02:47:38;6.68;;;3.20;;
23474;SDS011;11910;52.086;21.066;2023-07-31T02:50:04;8.95;;;2.88;;
23474;SDS011;11910;52.086;21.066;2023-07-31T02:52:30;4.93;;;3.25;;
23474;SDS011;11910;52.086;21.066;2023-07-31T02:54:57;10.13;;;3.28;;
23474;SDS011;11910;52.086;21.066;2023-07-31T02:57:23;4.07;;;3.13;;
23474;SDS011;11910;52.086;21.066;2023-07-31T02:59:48;4.30;;;3.53;;
23474;SDS011;11910;52.086;21.066;2023-07-31T03:02:14;6.85;;;3.58;;
23474;SDS011;11910;52.086;21.066;2023-07-31T03:04:39;3.95;;;3.50;;
23474;SDS011;11910;52.086;21.066;2023-07-31T03:07:05;5.63;;;3.60;;
23474;SDS011;11910;52.086;21.066;2023-07-31T03:09:31;4.70;;;3.83;;
23474;SDS011;11910;52.086;21.066;2023-07-31T03:11:56;4.97;;;3.95;;
23474;SDS011;11910;52.086;21.066;2023-07-31T03:14:22;5.60;;;4.07;;
23474;SDS011;11910;52.086;21.066;2023-07-31T03:16:48;8.68;;;3.97;;
23474;SDS011;11910;52.086;21.066;2023-07-31T03:19:14;5.80;;;3.95;;
23474;SDS011;11910;52.086;21.066;2023-07-31T03:21:39;4.30;;;3.80;;
23474;SDS011;11910;52.086;21.066;2023-07-31T03:24:05;5.70;;;3.40;;
23474;SDS011;11910;52.086;21.066;2023-07-31T03:26:31;5.15;;;3.50;;
23474;SDS011;11910;52.086;21.066;2023-07-31T03:28:57;6.35;;;3.63;;
23474;SDS011;11910;52.086;21.066;2023-07-31T03:31:23;6.25;;;3.38;;
23474;SDS011;11910;52.086;21.066;2023-07-31T03:33:48;3.92;;;3.53;;
23474;SDS011;11910;52.086;21.066;2023-07-31T03:36:14;4.65;;;3.70;;
23474;SDS011;11910;52.086;21.066;2023-07-31T03:38:40;4.05;;;3.40;;
23474;SDS011;11910;52.086;21.066;2023-07-31T03:41:05;6.05;;;3.65;;
23474;SDS011;11910;52.086;21.066;2023-07-31T03:43:31;4.78;;;3.75;;
23474;SDS011;11910;52.086;21.066;2023-07-31T03:45:59;6.45;;;3.40;;
23474;SDS011;11910;52.086;21.066;2023-07-31T03:48:25;4.53;;;3.60;;
23474;SDS011;11910;52.086;21.066;2023-07-31T03:50:51;8.45;;;3.38;;
23474;SDS011;11910;52.086;21.066;2023-07-31T03:53:16;5.25;;;3.60;;
23474;SDS011;11910;52.086;21.066;2023-07-31T03:55:42;4.18;;;3.58;;
23474;SDS011;11910;52.086;21.066;2023-07-31T03:58:07;6.78;;;3.30;;
23474;SDS011;11910;52.086;21.066;2023-07-31T04:00:33;6.72;;;3.53;;
23474;SDS011;11910;52.086;21.066;2023-07-31T04:02:59;4.63;;;3.00;;
23474;SDS011;11910;52.086;21.066;2023-07-31T04:05:24;5.80;;;3.40;;
23474;SDS011;11910;52.086;21.066;2023-07-31T04:07:50;4.72;;;3.38;;
23474;SDS011;11910;52.086;21.066;2023-07-31T04:10:15;8.45;;;3.40;;
23474;SDS011;11910;52.086;21.066;2023-07-31T04:12:41;4.93;;;3.20;;
23474;SDS011;11910;52.086;21.066;2023-07-31T04:15:07;6.60;;;3.30;;
23474;SDS011;11910;52.086;21.066;2023-07-31T04:17:32;4.40;;;3.40;;
23474;SDS011;11910;52.086;21.066;2023-07-31T04:19:58;3.95;;;3.10;;
23474;SDS011;11910;52.086;21.066;2023-07-31T04:22:23;6.72;;;3.47;;
23474;SDS011;11910;52.086;21.066;2023-07-31T04:24:49;6.38;;;3.50;;
23474;SDS011;11910;52.086;21.066;2023-07-31T04:27:15;5.63;;;3.17;;
23474;SDS011;11910;52.086;21.066;2023-07-31T04:29:40;6.53;;;3.70;;
23474;SDS011;11910;52.086;21.066;2023-07-31T04:32:07;7.10;;;3.40;;
23474;SDS011;11910;52.086;21.066;2023-07-31T04:34:33;6.18;;;3.40;;
23474;SDS011;11910;52.086;21.066;2023-07-31T04:36:59;4.25;;;3.30;;
23474;SDS011;11910;52.086;21.066;2023-07-31T04:39:24;5.20;;;3.40;;
23474;SDS011;11910;52.086;21.066;2023-07-31T04:41:50;5.28;;;3.13;;
23474;SDS011;11910;52.086;21.066;2023-07-31T04:44:16;5.07;;;3.30;;
23474;SDS011;11910;52.086;21.066;2023-07-31T04:46:41;5.28;;;3.03;;
23474;SDS011;11910;52.086;21.066;2023-07-31T04:49:07;7.10;;;3.28;;
23474;SDS011;11910;52.086;21.066;2023-07-31T04:51:32;4.63;;;3.47;;
23474;SDS011;11910;52.086;21.066;2023-07-31T04:53:58;6.25;;;3.35;;
23474;SDS011;11910;52.086;21.066;2023-07-31T04:56:23;8.70;;;3.30;;
23474;SDS011;11910;52.086;21.066;2023-07-31T04:58:49;5.05;;;3.03;;
23474;SDS011;11910;52.086;21.066;2023-07-31T05:01:15;5.80;;;3.05;;
23474;SDS011;11910;52.086;21.066;2023-07-31T05:03:40;3.33;;;2.97;;
23474;SDS011;11910;52.086;21.066;2023-07-31T05:06:06;4.18;;;3.20;;
23474;SDS011;11910;52.086;21.066;2023-07-31T05:08:31;5.95;;;3.55;;
23474;SDS011;11910;52.086;21.066;2023-07-31T05:10:58;5.03;;;3.10;;
23474;SDS011;11910;52.086;21.066;2023-07-31T05:13:24;3.60;;;2.90;;
23474;SDS011;11910;52.086;21.066;2023-07-31T05:15:49;6.60;;;3.40;;
23474;SDS011;11910;52.086;21.066;2023-07-31T05:18:15;6.70;;;3.60;;
23474;SDS011;11910;52.086;21.066;2023-07-31T05:20:41;4.53;;;2.95;;
23474;SDS011;11910;52.086;21.066;2023-07-31T05:23:07;6.13;;;3.20;;
23474;SDS011;11910;52.086;21.066;2023-07-31T05:25:32;5.93;;;3.05;;
23474;SDS011;11910;52.086;21.066;2023-07-31T05:27:58;5.40;;;3.10;;
23474;SDS011;11910;52.086;21.066;2023-07-31T05:30:23;4.47;;;3.13;;
23474;SDS011;11910;52.086;21.066;2023-07-31T05:32:49;5.03;;;2.90;;
23474;SDS011;11910;52.086;21.066;2023-07-31T05:35:15;5.25;;;3.22;;
23474;SDS011;11910;52.086;21.066;2023-07-31T05:37:40;6.70;;;3.17;;
23474;SDS011;11910;52.086;21.066;2023-07-31T05:40:09;9.30;;;3.35;;
23474;SDS011;11910;52.086;21.066;2023-07-31T05:42:34;4.95;;;3.30;;
23474;SDS011;11910;52.086;21.066;2023-07-31T05:45:03;8.20;;;3.28;;
23474;SDS011;11910;52.086;21.066;2023-07-31T05:47:29;6.57;;;3.03;;
23474;SDS011;11910;52.086;21.066;2023-07-31T05:49:54;5.45;;;3.10;;
23474;SDS011;11910;52.086;21.066;2023-07-31T05:52:20;4.75;;;3.17;;
23474;SDS011;11910;52.086;21.066;2023-07-31T05:54:45;4.60;;;3.33;;
23474;SDS011;11910;52.086;21.066;2023-07-31T05:57:11;5.30;;;3.00;;
23474;SDS011;11910;52.086;21.066;2023-07-31T05:59:37;4.47;;;3.00;;
23474;SDS011;11910;52.086;21.066;2023-07-31T06:02:02;4.65;;;3.08;;
23474;SDS011;11910;52.086;21.066;2023-07-31T06:04:28;5.90;;;3.00;;
23474;SDS011;11910;52.086;21.066;2023-07-31T06:06:54;6.45;;;3.00;;
23474;SDS011;11910;52.086;21.066;2023-07-31T06:09:19;6.50;;;3.08;;
23474;SDS011;11910;52.086;21.066;2023-07-31T06:11:45;6.05;;;3.08;;
23474;SDS011;11910;52.086;21.066;2023-07-31T06:14:11;6.88;;;3.20;;
23474;SDS011;11910;52.086;21.066;2023-07-31T06:16:37;4.28;;;2.90;;
23474;SDS011;11910;52.086;21.066;2023-07-31T06:19:02;3.50;;;3.15;;
23474;SDS011;11910;52.086;21.066;2023-07-31T06:21:28;8.38;;;3.33;;
23474;SDS011;11910;52.086;21.066;2023-07-31T06:23:54;6.63;;;3.13;;
23474;SDS011;11910;52.086;21.066;2023-07-31T06:26:20;6.03;;;3.33;;
23474;SDS011;11910;52.086;21.066;2023-07-31T06:28:46;6.32;;;3.28;;
23474;SDS011;11910;52.086;21.066;2023-07-31T06:31:11;4.88;;;2.90;;
23474;SDS011;11910;52.086;21.066;2023-07-31T06:33:37;4.97;;;3.42;;
23474;SDS011;11910;52.086;21.066;2023-07-31T06:36:02;8.82;;;3.38;;
23474;SDS011;11910;52.086;21.066;2023-07-31T06:38:28;6.78;;;3.13;;
23474;SDS011;11910;52.086;21.066;2023-07-31T06:40:54;8.50;;;3.15;;
23474;SDS011;11910;52.086;21.066;2023-07-31T06:43:19;8.23;;;3.22;;
23474;SDS011;11910;52.086;21.066;2023-07-31T06:45:54;6.28;;;3.42;;
23474;SDS011;11910;52.086;21.066;2023-07-31T06:48:20;7.15;;;3.47;;
23474;SDS011;11910;52.086;21.066;2023-07-31T06:50:45;8.32;;;3.35;;
23474;SDS011;11910;52.086;21.066;2023-07-31T06:53:20;8.27;;;3.33;;
23474;SDS011;11910;52.086;21.066;2023-07-31T06:59:17;8.27;;;3.05;;
23474;SDS011;11910;52.086;21.066;2023-07-31T07:01:48;6.25;;;3.25;;
23474;SDS011;11910;52.086;21.066;2023-07-31T07:07:38;7.75;;;3.50;;
23474;SDS011;11910;52.086;21.066;2023-07-31T07:10:29;10.80;;;3.22;;
23474;SDS011;11910;52.086;21.066;2023-07-31T07:12:55;5.43;;;3.50;;
23474;SDS011;11910;52.086;21.066;2023-07-31T07:15:21;7.40;;;3.00;;
23474;SDS011;11910;52.086;21.066;2023-07-31T07:17:46;5.35;;;3.20;;
23474;SDS011;11910;52.086;21.066;2023-07-31T07:20:12;6.45;;;2.92;;
23474;SDS011;11910;52.086;21.066;2023-07-31T07:22:37;8.60;;;3.45;;
23474;SDS011;11910;52.086;21.066;2023-07-31T07:25:04;6.63;;;3.08;;
23474;SDS011;11910;52.086;21.066;2023-07-31T07:27:30;4.03;;;3.00;;
23474;SDS011;11910;52.086;21.066;2023-07-31T07:29:55;7.60;;;3.10;;
23474;SDS011;11910;52.086;21.066;2023-07-31T07:32:21;8.88;;;3.15;;
23474;SDS011;11910;52.086;21.066;2023-07-31T07:34:47;5.47;;;2.88;;
23474;SDS011;11910;52.086;21.066;2023-07-31T07:37:14;7.13;;;3.20;;
23474;SDS011;11910;52.086;21.066;2023-07-31T07:39:40;6.70;;;3.05;;
23474;SDS011;11910;52.086;21.066;2023-07-31T07:42:06;5.03;;;3.20;;
23474;SDS011;11910;52.086;21.066;2023-07-31T07:44:32;7.32;;;3.22;;
23474;SDS011;11910;52.086;21.066;2023-07-31T07:46:58;4.18;;;2.83;;
23474;SDS011;11910;52.086;21.066;2023-07-31T07:49:23;6.53;;;3.10;;
23474;SDS011;11910;52.086;21.066;2023-07-31T07:51:52;6.20;;;3.33;;
23474;SDS011;11910;52.086;21.066;2023-07-31T07:54:17;3.75;;;2.95;;
23474;SDS011;11910;52.086;21.066;2023-07-31T07:56:44;6.05;;;3.20;;
23474;SDS011;11910;52.086;21.066;2023-07-31T07:59:09;6.63;;;3.10;;
23474;SDS011;11910;52.086;21.066;2023-07-31T08:01:35;6.38;;;2.97;;
23474;SDS011;11910;52.086;21.066;2023-07-31T08:04:00;4.35;;;3.08;;
23474;SDS011;11910;52.086;21.066;2023-07-31T08:06:26;6.85;;;2.90;;
23474;SDS011;11910;52.086;21.066;2023-07-31T08:08:52;11.20;;;3.08;;
23474;SDS011;11910;52.086;21.066;2023-07-31T08:11:17;6.68;;;2.80;;
23474;SDS011;11910;52.086;21.066;2023-07-31T08:13:43;7.80;;;2.80;;
23474;SDS011;11910;52.086;21.066;2023-07-31T08:16:11;6.70;;;3.00;;
23474;SDS011;11910;52.086;21.066;2023-07-31T08:18:37;9.10;;;3.08;;
23474;SDS011;11910;52.086;21.066;2023-07-31T08:21:03;8.02;;;3.08;;
23474;SDS011;11910;52.086;21.066;2023-07-31T08:23:28;7.13;;;3.15;;
23474;SDS011;11910;52.086;21.066;2023-07-31T08:25:54;7.78;;;3.20;;
23474;SDS011;11910;52.086;21.066;2023-07-31T08:28:20;5.82;;;3.17;;
23474;SDS011;11910;52.086;21.066;2023-07-31T08:30:45;7.80;;;2.97;;
23474;SDS011;11910;52.086;21.066;2023-07-31T08:33:11;5.10;;;2.92;;
23474;SDS011;11910;52.086;21.066;2023-07-31T08:35:37;4.18;;;2.92;;
23474;SDS011;11910;52.086;21.066;2023-07-31T08:38:02;4.28;;;2.38;;
23474;SDS011;11910;52.086;21.066;2023-07-31T08:40:28;8.13;;;2.83;;
23474;SDS011;11910;52.086;21.066;2023-07-31T08:42:54;5.15;;;2.70;;
23474;SDS011;11910;52.086;21.066;2023-07-31T08:45:27;5.47;;;2.90;;
23474;SDS011;11910;52.086;21.066;2023-07-31T08:47:56;4.50;;;2.70;;
23474;SDS011;11910;52.086;21.066;2023-07-31T08:50:25;4.40;;;2.40;;
23474;SDS011;11910;52.086;21.066;2023-07-31T08:52:51;5.07;;;2.60;;
23474;SDS011;11910;52.086;21.066;2023-07-31T08:55:17;5.35;;;2.42;;
23474;SDS011;11910;52.086;21.066;2023-07-31T08:57:48;4.43;;;2.30;;
23474;SDS011;11910;52.086;21.066;2023-07-31T09:00:20;4.95;;;2.35;;
23474;SDS011;11910;52.086;21.066;2023-07-31T09:02:57;5.63;;;2.53;;
23474;SDS011;11910;52.086;21.066;2023-07-31T09:05:30;5.65;;;2.50;;
23474;SDS011;11910;52.086;21.066;2023-07-31T09:07:56;7.25;;;2.85;;
23474;SDS011;11910;52.086;21.066;2023-07-31T09:10:23;8.10;;;2.58;;
23474;SDS011;11910;52.086;21.066;2023-07-31T09:12:49;5.50;;;2.58;;
23474;SDS011;11910;52.086;21.066;2023-07-31T09:15:17;5.43;;;2.70;;
23474;SDS011;11910;52.086;21.066;2023-07-31T09:17:43;4.03;;;2.45;;
23474;SDS011;11910;52.086;21.066;2023-07-31T09:22:44;4.53;;;2.67;;
23474;SDS011;11910;52.086;21.066;2023-07-31T09:25:17;5.65;;;2.97;;
23474;SDS011;11910;52.086;21.066;2023-07-31T09:27:51;7.50;;;2.90;;
23474;SDS011;11910;52.086;21.066;2023-07-31T09:30:20;6.32;;;2.80;;
23474;SDS011;11910;52.086;21.066;2023-07-31T09:32:47;5.60;;;2.60;;
23474;SDS011;11910;52.086;21.066;2023-07-31T09:35:20;5.50;;;2.60;;
23474;SDS011;11910;52.086;21.066;2023-07-31T09:37:53;6.32;;;2.60;;
23474;SDS011;11910;52.086;21.066;2023-07-31T09:40:27;6.82;;;2.85;;
23474;SDS011;11910;52.086;21.066;2023-07-31T09:43:01;7.30;;;2.72;;
23474;SDS011;11910;52.086;21.066;2023-07-31T09:45:34;6.03;;;2.63;;
23474;SDS011;11910;52.086;21.066;2023-07-31T09:48:03;6.30;;;2.78;;
23474;SDS011;11910;52.086;21.066;2023-07-31T09:50:39;6.25;;;2.50;;
23474;SDS011;11910;52.086;21.066;2023-07-31T09:53:06;4.43;;;2.10;;
23474;SDS011;11910;52.086;21.066;2023-07-31T09:55:33;4.70;;;2.72;;
23474;SDS011;11910;52.086;21.066;2023-07-31T09:58:02;3.75;;;2.38;;
23474;SDS011;11910;52.086;21.066;2023-07-31T10:00:33;4.72;;;2.53;;
23474;SDS011;11910;52.086;21.066;2023-07-31T10:03:00;3.28;;;2.10;;
23474;SDS011;11910;52.086;21.066;2023-07-31T10:06:09;4.40;;;2.30;;
23474;SDS011;11910;52.086;21.066;2023-07-31T10:08:21;4.55;;;2.35;;
23474;SDS011;11910;52.086;21.066;2023-07-31T10:10:52;6.00;;;2.60;;
23474;SDS011;11910;52.086;21.066;2023-07-31T10:13:17;4.10;;;2.00;;
23474;SDS011;11910;52.086;21.066;2023-07-31T10:15:47;7.25;;;2.22;;
23474;SDS011;11910;52.086;21.066;2023-07-31T10:18:13;3.72;;;2.22;;
23474;SDS011;11910;52.086;21.066;2023-07-31T10:20:39;4.38;;;2.38;;
23474;SDS011;11910;52.086;21.066;2023-07-31T10:23:05;7.60;;;2.55;;
23474;SDS011;11910;52.086;21.066;2023-07-31T10:25:31;4.90;;;2.42;;
23474;SDS011;11910;52.086;21.066;2023-07-31T10:27:57;7.63;;;2.95;;
23474;SDS011;11910;52.086;21.066;2023-07-31T10:30:25;7.68;;;2.58;;
23474;SDS011;11910;52.086;21.066;2023-07-31T10:32:54;5.55;;;2.45;;
23474;SDS011;11910;52.086;21.066;2023-07-31T10:35:20;8.73;;;2.67;;
23474;SDS011;11910;52.086;21.066;2023-07-31T10:37:49;4.97;;;2.63;;
23474;SDS011;11910;52.086;21.066;2023-07-31T10:40:17;4.78;;;2.45;;
23474;SDS011;11910;52.086;21.066;2023-07-31T10:42:51;3.17;;;2.22;;
23474;SDS011;11910;52.086;21.066;2023-07-31T10:48:04;5.35;;;2.70;;
23474;SDS011;11910;52.086;21.066;2023-07-31T10:50:31;5.35;;;2.72;;
23474;SDS011;11910;52.086;21.066;2023-07-31T10:52:58;4.35;;;2.20;;
23474;SDS011;11910;52.086;21.066;2023-07-31T10:57:58;5.93;;;2.33;;
23474;SDS011;11910;52.086;21.066;2023-07-31T11:00:31;5.38;;;2.67;;
23474;SDS011;11910;52.086;21.066;2023-07-31T11:03:01;6.03;;;2.22;;
23474;SDS011;11910;52.086;21.066;2023-07-31T11:08:14;8.23;;;2.50;;
23474;SDS011;11910;52.086;21.066;2023-07-31T11:10:42;4.43;;;2.40;;
23474;SDS011;11910;52.086;21.066;2023-07-31T11:13:11;4.63;;;2.20;;
23474;SDS011;11910;52.086;21.066;2023-07-31T11:15:37;6.03;;;2.58;;
23474;SDS011;11910;52.086;21.066;2023-07-31T11:18:03;5.00;;;2.63;;
23474;SDS011;11910;52.086;21.066;2023-07-31T11:20:30;6.95;;;2.50;;
23474;SDS011;11910;52.086;21.066;2023-07-31T11:23:01;5.38;;;2.47;;
23474;SDS011;11910;52.086;21.066;2023-07-31T11:25:28;5.28;;;2.40;;
23474;SDS011;11910;52.086;21.066;2023-07-31T11:27:55;6.13;;;2.30;;
23474;SDS011;11910;52.086;21.066;2023-07-31T11:30:21;6.25;;;2.30;;
23474;SDS011;11910;52.086;21.066;2023-07-31T11:32:47;5.32;;;2.30;;
23474;SDS011;11910;52.086;21.066;2023-07-31T11:35:12;8.40;;;2.30;;
23474;SDS011;11910;52.086;21.066;2023-07-31T11:37:39;4.05;;;2.33;;
23474;SDS011;11910;52.086;21.066;2023-07-31T11:40:05;5.75;;;2.42;;
23474;SDS011;11910;52.086;21.066;2023-07-31T11:42:31;3.65;;;2.05;;
23474;SDS011;11910;52.086;21.066;2023-07-31T11:44:57;6.30;;;2.17;;
23474;SDS011;11910;52.086;21.066;2023-07-31T11:47:23;10.05;;;6.50;;
23474;SDS011;11910;52.086;21.066;2023-07-31T11:49:51;4.00;;;2.35;;
23474;SDS011;11910;52.086;21.066;2023-07-31T11:52:17;7.47;;;2.35;;
23474;SDS011;11910;52.086;21.066;2023-07-31T11:54:45;5.57;;;2.10;;
23474;SDS011;11910;52.086;21.066;2023-07-31T11:57:11;3.72;;;2.13;;
23474;SDS011;11910;52.086;21.066;2023-07-31T11:59:38;3.95;;;2.50;;
23474;SDS011;11910;52.086;21.066;2023-07-31T12:02:04;8.25;;;2.40;;
23474;SDS011;11910;52.086;21.066;2023-07-31T12:04:30;5.22;;;2.35;;
23474;SDS011;11910;52.086;21.066;2023-07-31T12:06:56;4.22;;;2.10;;
23474;SDS011;11910;52.086;21.066;2023-07-31T12:09:25;4.45;;;1.88;;
23474;SDS011;11910;52.086;21.066;2023-07-31T12:11:51;5.05;;;2.40;;
23474;SDS011;11910;52.086;21.066;2023-07-31T12:14:27;4.88;;;2.17;;
23474;SDS011;11910;52.086;21.066;2023-07-31T12:19:24;4.22;;;1.80;;
23474;SDS011;11910;52.086;21.066;2023-07-31T12:21:54;4.05;;;1.90;;
23474;SDS011;11910;52.086;21.066;2023-07-31T12:24:24;4.60;;;1.65;;
23474;SDS011;11910;52.086;21.066;2023-07-31T12:26:51;6.70;;;2.05;;
23474;SDS011;11910;52.086;21.066;2023-07-31T12:29:17;4.07;;;2.10;;
23474;SDS011;11910;52.086;21.066;2023-07-31T12:31:43;6.63;;;2.00;;
23474;SDS011;11910;52.086;21.066;2023-07-31T12:34:16;5.65;;;1.90;;
23474;SDS011;11910;52.086;21.066;2023-07-31T12:36:43;3.80;;;1.92;;
23474;SDS011;11910;52.086;21.066;2023-07-31T12:39:09;8.77;;;2.58;;
23474;SDS011;11910;52.086;21.066;2023-07-31T12:41:35;6.72;;;2.75;;
23474;SDS011;11910;52.086;21.066;2023-07-31T12:44:00;5.22;;;2.20;;
23474;SDS011;11910;52.086;21.066;2023-07-31T12:46:26;4.72;;;1.92;;
23474;SDS011;11910;52.086;21.066;2023-07-31T12:48:52;4.50;;;1.95;;
23474;SDS011;11910;52.086;21.066;2023-07-31T12:51:18;5.78;;;1.88;;
23474;SDS011;11910;52.086;21.066;2023-07-31T12:53:43;7.25;;;2.00;;
23474;SDS011;11910;52.086;21.066;2023-07-31T12:56:09;3.75;;;1.73;;
23474;SDS011;11910;52.086;21.066;2023-07-31T12:58:34;6.97;;;1.95;;
23474;SDS011;11910;52.086;21.066;2023-07-31T13:01:00;4.50;;;1.85;;
23474;SDS011;11910;52.086;21.066;2023-07-31T13:03:27;5.10;;;1.90;;
23474;SDS011;11910;52.086;21.066;2023-07-31T13:05:52;7.90;;;1.90;;
23474;SDS011;11910;52.086;21.066;2023-07-31T13:08:19;3.90;;;2.08;;
23474;SDS011;11910;52.086;21.066;2023-07-31T13:10:45;6.40;;;2.10;;
23474;SDS011;11910;52.086;21.066;2023-07-31T13:13:11;4.03;;;1.90;;
23474;SDS011;11910;52.086;21.066;2023-07-31T13:15:37;4.22;;;1.90;;
23474;SDS011;11910;52.086;21.066;2023-07-31T13:18:02;4.90;;;2.13;;
23474;SDS011;11910;52.086;21.066;2023-07-31T13:20:28;4.35;;;2.10;;
23474;SDS011;11910;52.086;21.066;2023-07-31T13:22:54;5.07;;;2.10;;
23474;SDS011;11910;52.086;21.066;2023-07-31T13:25:19;3.78;;;2.03;;
23474;SDS011;11910;52.086;21.066;2023-07-31T13:27:45;8.50;;;2.20;;
23474;SDS011;11910;52.086;21.066;2023-07-31T13:30:10;3.05;;;1.73;;
23474;SDS011;11910;52.086;21.066;2023-07-31T13:32:36;3.63;;;1.90;;
23474;SDS011;11910;52.086;21.066;2023-07-31T13:35:04;6.05;;;2.10;;
23474;SDS011;11910;52.086;21.066;2023-07-31T13:37:33;5.60;;;2.13;;
23474;SDS011;11910;52.086;21.066;2023-07-31T13:39:59;5.57;;;2.05;;
23474;SDS011;11910;52.086;21.066;2023-07-31T13:42:25;4.75;;;2.00;;
23474;SDS011;11910;52.086;21.066;2023-07-31T13:44:50;3.97;;;1.70;;
23474;SDS011;11910;52.086;21.066;2023-07-31T13:47:17;4.78;;;2.00;;
23474;SDS011;11910;52.086;21.066;2023-07-31T13:49:42;4.13;;;1.85;;
23474;SDS011;11910;52.086;21.066;2023-07-31T13:52:08;6.78;;;2.20;;
23474;SDS011;11910;52.086;21.066;2023-07-31T13:54:34;6.43;;;2.15;;
23474;SDS011;11910;52.086;21.066;2023-07-31T13:57:00;5.30;;;2.20;;
23474;SDS011;11910;52.086;21.066;2023-07-31T13:59:25;4.82;;;2.22;;
23474;SDS011;11910;52.086;21.066;2023-07-31T14:01:51;9.43;;;2.58;;
23474;SDS011;11910;52.086;21.066;2023-07-31T14:04:16;4.22;;;2.15;;
23474;SDS011;11910;52.086;21.066;2023-07-31T14:06:45;2.45;;;1.75;;
23474;SDS011;11910;52.086;21.066;2023-07-31T14:09:12;10.77;;;2.20;;
23474;SDS011;11910;52.086;21.066;2023-07-31T14:11:39;4.43;;;1.95;;
23474;SDS011;11910;52.086;21.066;2023-07-31T14:14:05;5.30;;;2.38;;
23474;SDS011;11910;52.086;21.066;2023-07-31T14:16:30;4.32;;;1.73;;
23474;SDS011;11910;52.086;21.066;2023-07-31T14:18:56;4.10;;;1.80;;
23474;SDS011;11910;52.086;21.066;2023-07-31T14:21:24;5.47;;;2.25;;
23474;SDS011;11910;52.086;21.066;2023-07-31T14:23:50;5.22;;;1.90;;
23474;SDS011;11910;52.086;21.066;2023-07-31T14:26:15;5.07;;;2.00;;
23474;SDS011;11910;52.086;21.066;2023-07-31T14:28:41;4.13;;;1.85;;
23474;SDS011;11910;52.086;21.066;2023-07-31T14:31:07;5.50;;;2.00;;
23474;SDS011;11910;52.086;21.066;2023-07-31T14:33:33;4.50;;;1.90;;
23474;SDS011;11910;52.086;21.066;2023-07-31T14:35:58;3.38;;;1.80;;
23474;SDS011;11910;52.086;21.066;2023-07-31T14:38:24;3.75;;;1.98;;
23474;SDS011;11910;52.086;21.066;2023-07-31T14:40:50;5.53;;;2.03;;
23474;SDS011;11910;52.086;21.066;2023-07-31T14:43:16;4.00;;;1.67;;
23474;SDS011;11910;52.086;21.066;2023-07-31T14:45:41;6.38;;;1.85;;
23474;SDS011;11910;52.086;21.066;2023-07-31T14:48:07;4.20;;;1.80;;
23474;SDS011;11910;52.086;21.066;2023-07-31T14:50:33;5.93;;;1.88;;
23474;SDS011;11910;52.086;21.066;2023-07-31T14:52:58;4.28;;;1.80;;
23474;SDS011;11910;52.086;21.066;2023-07-31T14:55:25;3.45;;;1.83;;
23474;SDS011;11910;52.086;21.066;2023-07-31T14:57:50;3.40;;;1.77;;